sensor_id;sensor_type;location;lat;lon;timestamp;pressure;altitude;pressure_sealevel;temperature;humidity
47054;BME280;32811;52.382;5.270;2023-03-15T00:01:20;101207.50;;;1.47;100.00
47054;BME280;32811;52.382;5.270;2023-03-15T00:03:49;101165.66;;;1.22;100.00
47054;BME280;32811;52.382;5.270;2023-03-15T00:06:16;101185.25;;;1.25;100.00
47054;BME280;32811;52.382;5.270;2023-03-15T00:08:42;101208.84;;;1.39;100.00
47054;BME280;32811;52.382;5.270;2023-03-15T00:11:16;101193.16;;;1.30;100.00
47054;BME280;32811;52.382;5.270;2023-03-15T00:13:45;101198.06;;;1.27;100.00
47054;BME280;32811;52.382;5.270;2023-03-15T00:16:12;101215.22;;;1.31;100.00
47054;BME280;32811;52.382;5.270;2023-03-15T00:18:45;101226.69;;;1.40;100.00
47054;BME280;32811;52.382;5.270;2023-03-15T00:21:12;101198.94;;;1.27;100.00
47054;BME280;32811;52.382;5.270;2023-03-15T00:23:39;101210.13;;;1.31;100.00
47054;BME280;32811;52.382;5.270;2023-03-15T00:26:05;101231.84;;;1.42;100.00
47054;BME280;32811;52.382;5.270;2023-03-15T00:28:32;101237.81;;;1.42;100.00
47054;BME280;32811;52.382;5.270;2023-03-15T00:31:03;101212.53;;;1.28;100.00
47054;BME280;32811;52.382;5.270;2023-03-15T00:33:30;101225.53;;;1.34;100.00
47054;BME280;32811;52.382;5.270;2023-03-15T00:36:05;101252.59;;;1.50;100.00
47054;BME280;32811;52.382;5.270;2023-03-15T00:38:33;101249.22;;;1.51;100.00
47054;BME280;32811;52.382;5.270;2023-03-15T00:41:10;101250.69;;;1.45;100.00
47054;BME280;32811;52.382;5.270;2023-03-15T00:43:37;101212.16;;;1.20;100.00
47054;BME280;32811;52.382;5.270;2023-03-15T00:46:04;101211.28;;;1.19;100.00
47054;BME280;32811;52.382;5.270;2023-03-15T00:48:32;101223.41;;;1.25;100.00
47054;BME280;32811;52.382;5.270;2023-03-15T00:51:08;101255.63;;;1.42;100.00
47054;BME280;32811;52.382;5.270;2023-03-15T00:53:36;101220.94;;;1.27;100.00
47054;BME280;32811;52.382;5.270;2023-03-15T00:56:12;101226.13;;;1.28;100.00
47054;BME280;32811;52.382;5.270;2023-03-15T00:58:39;101258.16;;;1.42;100.00
47054;BME280;32811;52.382;5.270;2023-03-15T01:01:08;101233.53;;;1.23;100.00
47054;BME280;32811;52.382;5.270;2023-03-15T01:03:35;101258.53;;;1.32;100.00
47054;BME280;32811;52.382;5.270;2023-03-15T01:06:07;101257.41;;;1.27;100.00
47054;BME280;32811;52.382;5.270;2023-03-15T01:08:35;101249.97;;;1.14;100.00
47054;BME280;32811;52.382;5.270;2023-03-15T01:11:05;101263.22;;;1.24;100.00
47054;BME280;32811;52.382;5.270;2023-03-15T01:13:33;101274.34;;;1.27;100.00
47054;BME280;32811;52.382;5.270;2023-03-15T01:16:00;101237.63;;;1.03;100.00
47054;BME280;32811;52.382;5.270;2023-03-15T01:18:26;101289.47;;;1.23;100.00
47054;BME280;32811;52.382;5.270;2023-03-15T01:20:53;101279.06;;;1.19;100.00
47054;BME280;32811;52.382;5.270;2023-03-15T01:23:20;101275.03;;;1.06;100.00
47054;BME280;32811;52.382;5.270;2023-03-15T01:25:46;101288.28;;;1.17;100.00
47054;BME280;32811;52.382;5.270;2023-03-15T01:28:13;101258.28;;;0.93;100.00
47054;BME280;32811;52.382;5.270;2023-03-15T01:30:40;101270.38;;;0.97;100.00
47054;BME280;32811;52.382;5.270;2023-03-15T01:33:15;101300.69;;;1.11;100.00
47054;BME280;32811;52.382;5.270;2023-03-15T01:35:42;101296.88;;;1.02;100.00
47054;BME280;32811;52.382;5.270;2023-03-15T01:38:08;101297.59;;;1.00;100.00
47054;BME280;32811;52.382;5.270;2023-03-15T01:40:42;101311.34;;;1.03;100.00
47054;BME280;32811;52.382;5.270;2023-03-15T01:43:15;101314.22;;;1.10;100.00
47054;BME280;32811;52.382;5.270;2023-03-15T01:48:31;101310.75;;;1.09;100.00
47054;BME280;32811;52.382;5.270;2023-03-15T01:51:01;101316.56;;;1.07;100.00
47054;BME280;32811;52.382;5.270;2023-03-15T01:53:31;101289.28;;;0.86;100.00
47054;BME280;32811;52.382;5.270;2023-03-15T01:55:59;101306.44;;;0.90;100.00
47054;BME280;32811;52.382;5.270;2023-03-15T01:58:27;101309.13;;;0.93;100.00
47054;BME280;32811;52.382;5.270;2023-03-15T02:00:54;101324.38;;;0.93;100.00
47054;BME280;32811;52.382;5.270;2023-03-15T02:03:24;101321.91;;;0.95;100.00
47054;BME280;32811;52.382;5.270;2023-03-15T02:05:56;101332.41;;;1.01;100.00
47054;BME280;32811;52.382;5.270;2023-03-15T02:08:30;101323.41;;;0.91;100.00
47054;BME280;32811;52.382;5.270;2023-03-15T02:11:00;101341.94;;;1.05;100.00
47054;BME280;32811;52.382;5.270;2023-03-15T02:13:29;101319.28;;;0.93;100.00
47054;BME280;32811;52.382;5.270;2023-03-15T02:15:58;101331.50;;;1.00;100.00
47054;BME280;32811;52.382;5.270;2023-03-15T02:18:25;101340.16;;;1.04;100.00
47054;BME280;32811;52.382;5.270;2023-03-15T02:21:00;101341.13;;;1.06;100.00
47054;BME280;32811;52.382;5.270;2023-03-15T02:23:31;101325.97;;;0.91;100.00
47054;BME280;32811;52.382;5.270;2023-03-15T02:26:24;101349.97;;;0.96;100.00
47054;BME280;32811;52.382;5.270;2023-03-15T02:28:52;101317.31;;;0.71;100.00
47054;BME280;32811;52.382;5.270;2023-03-15T02:31:20;101325.59;;;0.67;100.00
47054;BME280;32811;52.382;5.270;2023-03-15T02:33:54;101353.84;;;0.73;100.00
47054;BME280;32811;52.382;5.270;2023-03-15T02:36:28;101354.72;;;0.74;100.00
47054;BME280;32811;52.382;5.270;2023-03-15T02:38:58;101363.28;;;0.76;100.00
47054;BME280;32811;52.382;5.270;2023-03-15T02:41:53;101313.00;;;0.37;100.00
47054;BME280;32811;52.382;5.270;2023-03-15T02:44:29;101282.19;;;0.15;100.00
47054;BME280;32811;52.382;5.270;2023-03-15T02:47:47;101294.09;;;0.16;100.00
47054;BME280;32811;52.382;5.270;2023-03-15T02:50:18;101337.19;;;0.31;100.00
47054;BME280;32811;52.382;5.270;2023-03-15T02:52:47;101348.31;;;0.33;100.00
47054;BME280;32811;52.382;5.270;2023-03-15T02:55:13;101343.78;;;0.27;100.00
47054;BME280;32811;52.382;5.270;2023-03-15T02:57:40;101395.81;;;0.50;100.00
47054;BME280;32811;52.382;5.270;2023-03-15T03:00:14;101384.34;;;0.42;100.00
47054;BME280;32811;52.382;5.270;2023-03-15T03:02:52;101335.09;;;0.07;100.00
47054;BME280;32811;52.382;5.270;2023-03-15T03:05:24;101343.47;;;0.06;100.00
47054;BME280;32811;52.382;5.270;2023-03-15T03:07:52;101416.84;;;0.33;100.00
47054;BME280;32811;52.382;5.270;2023-03-15T03:10:21;101310.31;;;-0.28;100.00
47054;BME280;32811;52.382;5.270;2023-03-15T03:12:52;101351.81;;;-0.11;100.00
47054;BME280;32811;52.382;5.270;2023-03-15T03:15:20;101359.72;;;-0.07;100.00
47054;BME280;32811;52.382;5.270;2023-03-15T03:17:54;101427.31;;;0.23;100.00
47054;BME280;32811;52.382;5.270;2023-03-15T03:20:21;101424.69;;;0.21;100.00
47054;BME280;32811;52.382;5.270;2023-03-15T03:22:49;101437.47;;;0.23;100.00
47054;BME280;32811;52.382;5.270;2023-03-15T03:25:16;101409.31;;;0.03;100.00
47054;BME280;32811;52.382;5.270;2023-03-15T03:27:44;101443.16;;;0.18;100.00
47054;BME280;32811;52.382;5.270;2023-03-15T03:30:12;101450.94;;;0.22;100.00
47054;BME280;32811;52.382;5.270;2023-03-15T03:32:40;101439.31;;;0.10;100.00
47054;BME280;32811;52.382;5.270;2023-03-15T03:35:10;101453.06;;;0.14;100.00
47054;BME280;32811;52.382;5.270;2023-03-15T03:37:38;101453.06;;;0.14;100.00
47054;BME280;32811;52.382;5.270;2023-03-15T03:40:05;101458.84;;;0.11;100.00
47054;BME280;32811;52.382;5.270;2023-03-15T03:42:34;101452.34;;;0.02;100.00
47054;BME280;32811;52.382;5.270;2023-03-15T03:45:01;101478.94;;;0.08;100.00
47054;BME280;32811;52.382;5.270;2023-03-15T03:47:28;101481.22;;;0.04;100.00
47054;BME280;32811;52.382;5.270;2023-03-15T03:49:55;101483.66;;;0.02;100.00
47054;BME280;32811;52.382;5.270;2023-03-15T03:52:22;101485.28;;;0.00;100.00
47054;BME280;32811;52.382;5.270;2023-03-15T03:54:49;101480.88;;;-0.03;100.00
47054;BME280;32811;52.382;5.270;2023-03-15T03:57:16;101496.03;;;-0.04;100.00
47054;BME280;32811;52.382;5.270;2023-03-15T03:59:45;101503.63;;;-0.04;100.00
47054;BME280;32811;52.382;5.270;2023-03-15T04:02:12;101495.41;;;-0.15;100.00
47054;BME280;32811;52.382;5.270;2023-03-15T04:04:39;101508.34;;;-0.10;100.00
47054;BME280;32811;52.382;5.270;2023-03-15T04:07:07;101506.78;;;-0.08;100.00
47054;BME280;32811;52.382;5.270;2023-03-15T04:09:34;101517.91;;;-0.06;100.00
47054;BME280;32811;52.382;5.270;2023-03-15T04:12:04;101518.75;;;-0.06;100.00
47054;BME280;32811;52.382;5.270;2023-03-15T04:14:33;101521.19;;;-0.07;100.00
47054;BME280;32811;52.382;5.270;2023-03-15T04:17:02;101527.78;;;-0.11;100.00
47054;BME280;32811;52.382;5.270;2023-03-15T04:19:29;101526.88;;;-0.11;100.00
47054;BME280;32811;52.382;5.270;2023-03-15T04:22:07;101537.72;;;-0.14;100.00
47054;BME280;32811;52.382;5.270;2023-03-15T04:24:35;101536.88;;;-0.14;100.00
47054;BME280;32811;52.382;5.270;2023-03-15T04:27:02;101534.75;;;-0.22;100.00
47054;BME280;32811;52.382;5.270;2023-03-15T04:29:29;101551.38;;;-0.27;100.00
47054;BME280;32811;52.382;5.270;2023-03-15T04:31:56;101559.78;;;-0.13;100.00
47054;BME280;32811;52.382;5.270;2023-03-15T04:34:28;101564.38;;;0.08;100.00
47054;BME280;32811;52.382;5.270;2023-03-15T04:36:55;101562.38;;;0.32;100.00
47054;BME280;32811;52.382;5.270;2023-03-15T04:39:22;101560.00;;;0.65;100.00
47054;BME280;32811;52.382;5.270;2023-03-15T04:41:49;101557.28;;;0.61;100.00
47054;BME280;32811;52.382;5.270;2023-03-15T04:44:16;101571.13;;;0.67;100.00
47054;BME280;32811;52.382;5.270;2023-03-15T04:46:43;101572.53;;;0.76;100.00
47054;BME280;32811;52.382;5.270;2023-03-15T04:49:10;101577.66;;;0.93;100.00
47054;BME280;32811;52.382;5.270;2023-03-15T04:51:36;101569.06;;;0.91;100.00
47054;BME280;32811;52.382;5.270;2023-03-15T04:54:03;101568.69;;;0.99;100.00
47054;BME280;32811;52.382;5.270;2023-03-15T04:56:30;101574.41;;;0.95;100.00
47054;BME280;32811;52.382;5.270;2023-03-15T04:58:56;101580.00;;;1.04;100.00
47054;BME280;32811;52.382;5.270;2023-03-15T05:01:27;101572.38;;;1.04;100.00
47054;BME280;32811;52.382;5.270;2023-03-15T05:03:56;101578.16;;;1.02;100.00
47054;BME280;32811;52.382;5.270;2023-03-15T05:06:25;101588.88;;;0.96;100.00
47054;BME280;32811;52.382;5.270;2023-03-15T05:08:52;101591.94;;;0.91;100.00
47054;BME280;32811;52.382;5.270;2023-03-15T05:11:20;101599.41;;;0.88;100.00
47054;BME280;32811;52.382;5.270;2023-03-15T05:13:46;101608.34;;;0.81;100.00
47054;BME280;32811;52.382;5.270;2023-03-15T05:16:13;101610.81;;;0.79;100.00
47054;BME280;32811;52.382;5.270;2023-03-15T05:18:39;101615.72;;;0.76;100.00
47054;BME280;32811;52.382;5.270;2023-03-15T05:21:06;101624.91;;;0.74;100.00
47054;BME280;32811;52.382;5.270;2023-03-15T05:23:33;101627.97;;;0.69;100.00
47054;BME280;32811;52.382;5.270;2023-03-15T05:25:59;101630.34;;;0.66;100.00
47054;BME280;32811;52.382;5.270;2023-03-15T05:28:26;101631.13;;;0.65;100.00
47054;BME280;32811;52.382;5.270;2023-03-15T05:30:53;101636.19;;;0.65;100.00
47054;BME280;32811;52.382;5.270;2023-03-15T05:33:20;101641.13;;;0.61;100.00
47054;BME280;32811;52.382;5.270;2023-03-15T05:35:47;101643.41;;;0.57;100.00
47054;BME280;32811;52.382;5.270;2023-03-15T05:38:14;101640.59;;;0.52;100.00
47054;BME280;32811;52.382;5.270;2023-03-15T05:40:45;101645.31;;;0.46;100.00
47054;BME280;32811;52.382;5.270;2023-03-15T05:43:13;101649.25;;;0.41;100.00
47054;BME280;32811;52.382;5.270;2023-03-15T05:45:39;101650.66;;;0.36;100.00
47054;BME280;32811;52.382;5.270;2023-03-15T05:48:06;101652.81;;;0.30;100.00
47054;BME280;32811;52.382;5.270;2023-03-15T05:50:33;101660.19;;;0.25;100.00
47054;BME280;32811;52.382;5.270;2023-03-15T05:52:59;101660.88;;;0.23;100.00
47054;BME280;32811;52.382;5.270;2023-03-15T05:55:26;101667.41;;;0.19;100.00
47054;BME280;32811;52.382;5.270;2023-03-15T05:57:52;101668.88;;;0.15;100.00
47054;BME280;32811;52.382;5.270;2023-03-15T06:00:19;101672.06;;;0.11;100.00
47054;BME280;32811;52.382;5.270;2023-03-15T06:02:49;101678.16;;;0.15;100.00
47054;BME280;32811;52.382;5.270;2023-03-15T06:05:15;101685.00;;;0.16;100.00
47054;BME280;32811;52.382;5.270;2023-03-15T06:07:42;101690.97;;;0.16;100.00
47054;BME280;32811;52.382;5.270;2023-03-15T06:10:09;101694.53;;;0.20;100.00
47054;BME280;32811;52.382;5.270;2023-03-15T06:12:41;101695.63;;;0.24;100.00
47054;BME280;32811;52.382;5.270;2023-03-15T06:15:08;101703.41;;;0.27;100.00
47054;BME280;32811;52.382;5.270;2023-03-15T06:17:35;101703.41;;;0.27;100.00
47054;BME280;32811;52.382;5.270;2023-03-15T06:20:02;101704.09;;;0.24;100.00
47054;BME280;32811;52.382;5.270;2023-03-15T06:22:29;101716.91;;;0.26;100.00
47054;BME280;32811;52.382;5.270;2023-03-15T06:24:56;101727.44;;;0.32;100.00
47054;BME280;32811;52.382;5.270;2023-03-15T06:27:22;101726.63;;;0.33;100.00
47054;BME280;32811;52.382;5.270;2023-03-15T06:29:49;101723.28;;;0.47;100.00
47054;BME280;32811;52.382;5.270;2023-03-15T06:32:16;101724.69;;;0.57;100.00
47054;BME280;32811;52.382;5.270;2023-03-15T06:34:43;101731.16;;;0.52;100.00
47054;BME280;32811;52.382;5.270;2023-03-15T06:37:09;101738.69;;;0.50;100.00
47054;BME280;32811;52.382;5.270;2023-03-15T06:39:45;101730.91;;;0.47;100.00
47054;BME280;32811;52.382;5.270;2023-03-15T06:42:12;101740.34;;;0.50;100.00
47054;BME280;32811;52.382;5.270;2023-03-15T06:44:39;101736.50;;;0.56;100.00
47054;BME280;32811;52.382;5.270;2023-03-15T06:47:09;101745.38;;;0.63;100.00
47054;BME280;32811;52.382;5.270;2023-03-15T06:49:37;101745.31;;;0.76;100.00
47054;BME280;32811;52.382;5.270;2023-03-15T06:52:06;101749.09;;;0.98;100.00
47054;BME280;32811;52.382;5.270;2023-03-15T06:54:33;101749.59;;;1.07;100.00
47054;BME280;32811;52.382;5.270;2023-03-15T06:57:02;101758.31;;;1.26;100.00
47054;BME280;32811;52.382;5.270;2023-03-15T06:59:28;101750.31;;;1.34;100.00
47054;BME280;32811;52.382;5.270;2023-03-15T07:01:55;101758.13;;;1.52;100.00
47054;BME280;32811;52.382;5.270;2023-03-15T07:04:22;101767.94;;;1.61;100.00
47054;BME280;32811;52.382;5.270;2023-03-15T07:06:49;101765.28;;;1.74;100.00
47054;BME280;32811;52.382;5.270;2023-03-15T07:09:16;101764.47;;;1.75;100.00
47054;BME280;32811;52.382;5.270;2023-03-15T07:11:43;101757.94;;;1.80;100.00
47054;BME280;32811;52.382;5.270;2023-03-15T07:14:09;101745.31;;;1.82;100.00
47054;BME280;32811;52.382;5.270;2023-03-15T07:16:36;101774.56;;;2.05;100.00
47054;BME280;32811;52.382;5.270;2023-03-15T07:19:03;101766.13;;;2.06;100.00
47054;BME280;32811;52.382;5.270;2023-03-15T07:21:30;101768.31;;;2.15;100.00
47054;BME280;32811;52.382;5.270;2023-03-15T07:23:56;101778.34;;;2.28;100.00
47054;BME280;32811;52.382;5.270;2023-03-15T07:26:23;101784.16;;;2.42;100.00
47054;BME280;32811;52.382;5.270;2023-03-15T07:28:49;101788.63;;;2.46;100.00
47054;BME280;32811;52.382;5.270;2023-03-15T07:31:16;101785.28;;;2.47;100.00
47054;BME280;32811;52.382;5.270;2023-03-15T07:33:43;101789.25;;;2.58;100.00
47054;BME280;32811;52.382;5.270;2023-03-15T07:36:09;101796.28;;;2.62;100.00
47054;BME280;32811;52.382;5.270;2023-03-15T07:38:36;101788.78;;;2.65;100.00
47054;BME280;32811;52.382;5.270;2023-03-15T07:41:05;101796.13;;;2.76;100.00
47054;BME280;32811;52.382;5.270;2023-03-15T07:43:32;101799.22;;;2.86;100.00
47054;BME280;32811;52.382;5.270;2023-03-15T07:45:59;101793.72;;;2.79;100.00
47054;BME280;32811;52.382;5.270;2023-03-15T07:48:26;101801.53;;;2.82;100.00
47054;BME280;32811;52.382;5.270;2023-03-15T07:50:55;101801.78;;;2.86;100.00
47054;BME280;32811;52.382;5.270;2023-03-15T07:53:22;101812.34;;;2.94;100.00
47054;BME280;32811;52.382;5.270;2023-03-15T07:55:49;101804.69;;;2.94;100.00
47054;BME280;32811;52.382;5.270;2023-03-15T07:58:16;101817.28;;;3.07;100.00
47054;BME280;32811;52.382;5.270;2023-03-15T08:00:45;101827.56;;;3.09;100.00
47054;BME280;32811;52.382;5.270;2023-03-15T08:03:12;101824.06;;;3.07;100.00
47054;BME280;32811;52.382;5.270;2023-03-15T08:05:38;101833.22;;;3.20;100.00
47054;BME280;32811;52.382;5.270;2023-03-15T08:08:05;101824.59;;;3.18;100.00
47054;BME280;32811;52.382;5.270;2023-03-15T08:10:35;101829.66;;;3.34;100.00
47054;BME280;32811;52.382;5.270;2023-03-15T08:13:01;101838.00;;;3.48;100.00
47054;BME280;32811;52.382;5.270;2023-03-15T08:15:28;101833.84;;;3.50;100.00
47054;BME280;32811;52.382;5.270;2023-03-15T08:17:54;101833.34;;;3.57;100.00
47054;BME280;32811;52.382;5.270;2023-03-15T08:20:21;101834.81;;;3.70;100.00
47054;BME280;32811;52.382;5.270;2023-03-15T08:22:48;101850.94;;;3.69;100.00
47054;BME280;32811;52.382;5.270;2023-03-15T08:25:19;101844.50;;;3.77;100.00
47054;BME280;32811;52.382;5.270;2023-03-15T08:27:47;101857.25;;;3.93;100.00
47054;BME280;32811;52.382;5.270;2023-03-15T08:30:15;101846.84;;;4.08;100.00
47054;BME280;32811;52.382;5.270;2023-03-15T08:32:44;101840.13;;;4.10;100.00
47054;BME280;32811;52.382;5.270;2023-03-15T08:35:13;101850.06;;;4.22;100.00
47054;BME280;32811;52.382;5.270;2023-03-15T08:37:41;101850.78;;;4.20;100.00
47054;BME280;32811;52.382;5.270;2023-03-15T08:40:14;101858.41;;;4.18;100.00
47054;BME280;32811;52.382;5.270;2023-03-15T08:42:41;101861.94;;;4.22;100.00
47054;BME280;32811;52.382;5.270;2023-03-15T08:45:08;101856.03;;;4.41;100.00
47054;BME280;32811;52.382;5.270;2023-03-15T08:47:35;101865.50;;;4.43;100.00
47054;BME280;32811;52.382;5.270;2023-03-15T08:50:13;101871.66;;;4.47;100.00
47054;BME280;32811;52.382;5.270;2023-03-15T08:52:41;101867.16;;;4.61;100.00
47054;BME280;32811;52.382;5.270;2023-03-15T08:55:08;101873.47;;;4.69;100.00
47054;BME280;32811;52.382;5.270;2023-03-15T08:57:36;101873.56;;;4.90;100.00
47054;BME280;32811;52.382;5.270;2023-03-15T09:00:04;101876.72;;;4.84;100.00
47054;BME280;32811;52.382;5.270;2023-03-15T09:02:35;101875.66;;;4.79;100.00
47054;BME280;32811;52.382;5.270;2023-03-15T09:05:03;101870.19;;;4.91;100.00
47054;BME280;32811;52.382;5.270;2023-03-15T09:07:32;101861.31;;;4.83;100.00
47054;BME280;32811;52.382;5.270;2023-03-15T09:09:59;101858.50;;;4.96;100.00
47054;BME280;32811;52.382;5.270;2023-03-15T09:12:29;101855.50;;;5.06;100.00
47054;BME280;32811;52.382;5.270;2023-03-15T09:14:56;101858.28;;;5.11;100.00
47054;BME280;32811;52.382;5.270;2023-03-15T09:17:22;101869.25;;;5.08;100.00
47054;BME280;32811;52.382;5.270;2023-03-15T09:19:49;101859.16;;;4.92;100.00
47054;BME280;32811;52.382;5.270;2023-03-15T09:22:15;101865.75;;;5.06;100.00
47054;BME280;32811;52.382;5.270;2023-03-15T09:25:03;101865.00;;;5.09;100.00
47054;BME280;32811;52.382;5.270;2023-03-15T09:27:30;101870.47;;;5.16;100.00
47054;BME280;32811;52.382;5.270;2023-03-15T09:29:57;101875.59;;;5.16;100.00
47054;BME280;32811;52.382;5.270;2023-03-15T09:32:24;101866.31;;;4.99;100.00
47054;BME280;32811;52.382;5.270;2023-03-15T09:34:52;101872.88;;;5.13;100.00
47054;BME280;32811;52.382;5.270;2023-03-15T09:37:18;101866.41;;;5.22;100.00
47054;BME280;32811;52.382;5.270;2023-03-15T09:39:47;101874.66;;;5.14;100.00
47054;BME280;32811;52.382;5.270;2023-03-15T09:42:21;101873.03;;;5.16;100.00
47054;BME280;32811;52.382;5.270;2023-03-15T09:44:58;101871.13;;;5.12;100.00
47054;BME280;32811;52.382;5.270;2023-03-15T09:47:41;101883.25;;;5.36;100.00
47054;BME280;32811;52.382;5.270;2023-03-15T09:55:22;101877.19;;;5.34;100.00
47054;BME280;32811;52.382;5.270;2023-03-15T09:58:00;101877.50;;;5.41;100.00
47054;BME280;32811;52.382;5.270;2023-03-15T10:03:03;101883.44;;;5.61;100.00
47054;BME280;32811;52.382;5.270;2023-03-15T10:05:44;101877.84;;;5.70;100.00
47054;BME280;32811;52.382;5.270;2023-03-15T10:08:16;101881.72;;;5.81;100.00
47054;BME280;32811;52.382;5.270;2023-03-15T10:16:28;101890.47;;;5.66;100.00
47054;BME280;32811;52.382;5.270;2023-03-15T10:21:47;101884.41;;;6.06;100.00
47054;BME280;32811;52.382;5.270;2023-03-15T10:26:50;101899.13;;;6.10;100.00
47054;BME280;32811;52.382;5.270;2023-03-15T10:29:20;101885.97;;;6.23;100.00
47054;BME280;32811;52.382;5.270;2023-03-15T10:31:48;101892.91;;;6.26;100.00
47054;BME280;32811;52.382;5.270;2023-03-15T10:34:18;101819.66;;;5.89;100.00
47054;BME280;32811;52.382;5.270;2023-03-15T10:36:47;101884.88;;;6.39;100.00
47054;BME280;32811;52.382;5.270;2023-03-15T10:39:18;101851.63;;;5.97;100.00
47054;BME280;32811;52.382;5.270;2023-03-15T10:41:47;101874.97;;;6.05;100.00
47054;BME280;32811;52.382;5.270;2023-03-15T10:44:17;101910.31;;;6.34;100.00
47054;BME280;32811;52.382;5.270;2023-03-15T10:46:59;101908.53;;;6.54;100.00
47054;BME280;32811;52.382;5.270;2023-03-15T10:49:43;101914.56;;;6.56;100.00
47054;BME280;32811;52.382;5.270;2023-03-15T10:52:38;101917.59;;;6.69;100.00
47054;BME280;32811;52.382;5.270;2023-03-15T10:55:09;101925.38;;;6.70;100.00
47054;BME280;32811;52.382;5.270;2023-03-15T10:57:39;101927.94;;;6.70;100.00
47054;BME280;32811;52.382;5.270;2023-03-15T11:00:22;101921.97;;;6.71;83.58
47054;BME280;32811;52.382;5.270;2023-03-15T11:03:00;101937.78;;;6.82;100.00
47054;BME280;32811;52.382;5.270;2023-03-15T11:05:37;101934.00;;;6.72;96.78
47054;BME280;32811;52.382;5.270;2023-03-15T11:08:10;101947.81;;;6.76;100.00
47054;BME280;32811;52.382;5.270;2023-03-15T11:10:37;101942.84;;;6.80;100.00
47054;BME280;32811;52.382;5.270;2023-03-15T11:15:39;101947.50;;;6.91;81.78
47054;BME280;32811;52.382;5.270;2023-03-15T11:18:24;101954.72;;;7.01;100.00
47054;BME280;32811;52.382;5.270;2023-03-15T11:20:54;101954.38;;;6.92;86.65
47054;BME280;32811;52.382;5.270;2023-03-15T11:23:27;101951.06;;;6.94;76.45
47054;BME280;32811;52.382;5.270;2023-03-15T11:25:55;101947.94;;;7.03;79.77
47054;BME280;32811;52.382;5.270;2023-03-15T11:28:26;101949.78;;;7.05;100.00
47054;BME280;32811;52.382;5.270;2023-03-15T11:30:54;101951.59;;;7.08;85.30
47054;BME280;32811;52.382;5.270;2023-03-15T11:33:40;101951.16;;;7.20;78.29
47054;BME280;32811;52.382;5.270;2023-03-15T11:36:17;101958.69;;;7.15;73.18
47054;BME280;32811;52.382;5.270;2023-03-15T11:38:46;101959.78;;;7.22;69.60
47054;BME280;32811;52.382;5.270;2023-03-15T11:46:33;101952.53;;;7.10;65.12
47054;BME280;32811;52.382;5.270;2023-03-15T11:49:11;101959.81;;;6.99;76.17
47054;BME280;32811;52.382;5.270;2023-03-15T11:51:39;101951.34;;;7.02;84.04
47054;BME280;32811;52.382;5.270;2023-03-15T11:59:18;101952.72;;;7.16;69.73
47054;BME280;32811;52.382;5.270;2023-03-15T12:06:55;101948.25;;;7.11;87.19
47054;BME280;32811;52.382;5.270;2023-03-15T12:12:00;101962.19;;;7.17;73.82
47054;BME280;32811;52.382;5.270;2023-03-15T12:14:32;101960.94;;;7.30;82.97
47054;BME280;32811;52.382;5.270;2023-03-15T12:19:59;101966.28;;;7.36;81.56
47054;BME280;32811;52.382;5.270;2023-03-15T12:22:31;101955.13;;;7.36;84.42
47054;BME280;32811;52.382;5.270;2023-03-15T12:25:07;101952.41;;;7.31;85.67
47054;BME280;32811;52.382;5.270;2023-03-15T12:27:40;101947.34;;;7.33;85.39
47054;BME280;32811;52.382;5.270;2023-03-15T12:30:25;101942.38;;;7.39;82.33
47054;BME280;32811;52.382;5.270;2023-03-15T12:32:56;101946.88;;;7.44;86.93
47054;BME280;32811;52.382;5.270;2023-03-15T12:35:28;101943.22;;;7.38;100.00
47054;BME280;32811;52.382;5.270;2023-03-15T12:37:57;101951.41;;;7.52;92.51
47054;BME280;32811;52.382;5.270;2023-03-15T12:45:42;101946.75;;;7.65;91.58
47054;BME280;32811;52.382;5.270;2023-03-15T12:53:16;101948.44;;;7.65;87.88
47054;BME280;32811;52.382;5.270;2023-03-15T12:55:45;101941.81;;;7.72;86.34
47054;BME280;32811;52.382;5.270;2023-03-15T12:58:15;101948.59;;;7.69;78.29
47054;BME280;32811;52.382;5.270;2023-03-15T13:00:44;101948.50;;;7.66;84.96
47054;BME280;32811;52.382;5.270;2023-03-15T13:03:14;101952.03;;;7.70;75.52
47054;BME280;32811;52.382;5.270;2023-03-15T13:16:37;101935.78;;;7.45;74.15
47054;BME280;32811;52.382;5.270;2023-03-15T13:27:53;101938.06;;;7.62;82.93
47054;BME280;32811;52.382;5.270;2023-03-15T13:30:36;101933.63;;;7.58;74.78
47054;BME280;32811;52.382;5.270;2023-03-15T13:35:44;101928.34;;;7.53;82.95
47054;BME280;32811;52.382;5.270;2023-03-15T13:40:53;101934.66;;;7.63;76.81
47054;BME280;32811;52.382;5.270;2023-03-15T13:43:24;101935.44;;;7.60;73.84
47054;BME280;32811;52.382;5.270;2023-03-15T13:45:51;101915.38;;;7.50;74.25
47054;BME280;32811;52.382;5.270;2023-03-15T13:48:17;101936.84;;;7.52;73.26
47054;BME280;32811;52.382;5.270;2023-03-15T13:50:51;101922.91;;;7.44;75.12
47054;BME280;32811;52.382;5.270;2023-03-15T13:53:22;101930.38;;;7.38;77.43
47054;BME280;32811;52.382;5.270;2023-03-15T13:56:08;101928.81;;;7.41;77.77
47054;BME280;32811;52.382;5.270;2023-03-15T13:58:40;101937.47;;;7.45;65.69
47054;BME280;32811;52.382;5.270;2023-03-15T14:01:11;101919.25;;;7.37;74.13
47054;BME280;32811;52.382;5.270;2023-03-15T14:03:41;101940.25;;;7.51;76.98
47054;BME280;32811;52.382;5.270;2023-03-15T14:06:19;101937.59;;;7.48;74.98
47054;BME280;32811;52.382;5.270;2023-03-15T14:08:47;101940.25;;;7.51;78.75
47054;BME280;32811;52.382;5.270;2023-03-15T14:11:31;101940.31;;;7.53;76.86
47054;BME280;32811;52.382;5.270;2023-03-15T14:14:00;101940.66;;;7.63;71.79
47054;BME280;32811;52.382;5.270;2023-03-15T14:16:44;101945.63;;;7.57;72.60
47054;BME280;32811;52.382;5.270;2023-03-15T14:19:32;101941.13;;;7.52;80.32
47054;BME280;32811;52.382;5.270;2023-03-15T14:22:02;101949.16;;;7.61;74.10
47054;BME280;32811;52.382;5.270;2023-03-15T14:24:33;101925.22;;;7.62;66.36